Time;durP1;ratioP1;P1;durP2;ratioP2;P2;SDS_P1;SDS_P2;PMS_P1;PMS_P2;Temp;Humidity;BMP_temperature;BMP_pressure;BME280_temperature;BME280_humidity;BME280_pressure;Samples;Min_cycle;Max_cycle;Signal;HPM_P1;HPM_P2
2020/12/28 00:00:10;;;;;;;55.90;2.50;;;6.10;1.00;;;;;;5057642;28;20208;-69
2020/12/28 00:02:37;;;;;;;55.83;2.20;;;6.10;1.00;;;;;;5057111;28;20273;-69
2020/12/28 00:05:06;;;;;;;55.90;2.50;;;6.10;1.00;;;;;;5048503;22;20585;-67
2020/12/28 00:07:33;;;;;;;56.00;2.25;;;6.10;1.00;;;;;;5018105;28;20219;-68
2020/12/28 00:09:59;;;;;;;55.80;2.30;;;6.10;1.00;;;;;;5017860;28;20207;-67
2020/12/28 00:12:29;;;;;;;56.63;2.40;;;6.10;1.00;;;;;;5017813;28;20200;-67
2020/12/28 00:14:55;;;;;;;55.65;2.35;;;6.10;1.00;;;;;;5018098;28;20317;-67
2020/12/28 00:17:21;;;;;;;55.78;2.58;;;6.00;1.00;;;;;;5017619;28;20227;-67
2020/12/28 00:19:47;;;;;;;55.78;2.28;;;6.00;1.00;;;;;;5017903;28;20211;-67
2020/12/28 00:22:14;;;;;;;55.40;2.20;;;6.00;1.00;;;;;;5017816;28;20254;-67
2020/12/28 00:24:40;;;;;;;55.80;2.20;;;5.90;1.00;;;;;;5017641;28;20283;-67
2020/12/28 00:27:06;;;;;;;55.75;2.30;;;6.00;1.00;;;;;;5018288;28;20258;-67
2020/12/28 00:29:34;;;;;;;56.45;2.28;;;5.90;1.00;;;;;;5014121;28;20286;-67
2020/12/28 00:32:00;;;;;;;56.05;2.10;;;5.90;1.00;;;;;;5015192;28;20211;-67
2020/12/28 00:34:26;;;;;;;57.33;2.50;;;5.90;1.00;;;;;;5014745;28;20224;-67
2020/12/28 00:36:53;;;;;;;55.63;2.03;;;5.90;1.00;;;;;;5014762;28;20205;-67
2020/12/28 00:39:19;;;;;;;55.42;2.08;;;5.90;1.00;;;;;;5014781;28;20209;-67
2020/12/28 00:41:45;;;;;;;55.47;2.10;;;5.90;1.00;;;;;;5014339;28;20637;-67
2020/12/28 00:44:11;;;;;;;55.67;2.28;;;5.90;1.00;;;;;;5013916;28;20711;-67
2020/12/28 00:46:39;;;;;;;55.60;2.30;;;5.90;1.00;;;;;;5014467;28;20241;-67
2020/12/28 00:49:05;;;;;;;55.80;2.30;;;5.80;1.00;;;;;;5014537;28;20303;-67
2020/12/28 00:51:31;;;;;;;56.58;2.17;;;5.80;1.00;;;;;;5013934;28;20218;-67
2020/12/28 00:53:57;;;;;;;55.80;2.20;;;5.80;1.00;;;;;;5014040;28;20226;-67
2020/12/28 00:56:24;;;;;;;55.45;2.00;;;5.80;1.00;;;;;;5014608;28;20242;-67
2020/12/28 00:58:50;;;;;;;55.75;2.15;;;5.80;1.00;;;;;;5013960;28;20211;-68
2020/12/28 01:01:16;;;;;;;55.45;2.40;;;5.70;1.00;;;;;;5014176;28;20207;-68
2020/12/28 01:03:44;;;;;;;56.10;2.40;;;5.70;1.00;;;;;;5013714;28;20281;-68
2020/12/28 01:06:10;;;;;;;55.60;2.20;;;5.70;1.00;;;;;;5013812;28;20242;-68
2020/12/28 01:08:36;;;;;;;56.67;2.40;;;5.70;1.00;;;;;;5013974;28;20688;-68
2020/12/28 01:11:03;;;;;;;57.63;2.38;;;5.70;1.00;;;;;;5013990;28;20208;-68
2020/12/28 01:13:29;;;;;;;55.50;2.20;;;5.70;1.00;;;;;;5013651;28;20313;-68
2020/12/28 01:15:55;;;;;;;56.30;2.30;;;5.70;1.00;;;;;;5013640;28;20246;-68
2020/12/28 01:18:22;;;;;;;55.70;2.38;;;5.70;1.00;;;;;;5013632;28;20669;-68
2020/12/28 01:20:49;;;;;;;55.47;2.20;;;5.70;1.00;;;;;;5013482;28;20203;-69
2020/12/28 01:23:15;;;;;;;55.80;2.20;;;5.70;1.00;;;;;;5013516;28;20228;-68
2020/12/28 01:25:41;;;;;;;57.35;2.40;;;5.70;1.00;;;;;;5013824;28;20206;-68
2020/12/28 01:28:08;;;;;;;56.28;2.70;;;5.70;1.00;;;;;;5013314;28;20207;-68
2020/12/28 01:30:34;;;;;;;55.85;2.20;;;5.70;1.00;;;;;;5013546;28;20211;-68
2020/12/28 01:33:01;;;;;;;55.50;2.10;;;5.70;1.00;;;;;;5013378;28;20691;-68
2020/12/28 01:35:28;;;;;;;55.35;2.10;;;5.80;1.00;;;;;;5013549;28;20208;-68
2020/12/28 01:37:55;;;;;;;55.60;2.08;;;5.70;1.00;;;;;;5013409;28;20273;-68
2020/12/28 01:40:21;;;;;;;56.42;2.67;;;5.80;1.00;;;;;;5012706;28;20299;-68
2020/12/28 01:42:48;;;;;;;56.08;2.40;;;5.80;1.00;;;;;;5013368;28;20270;-68
2020/12/28 01:45:14;;;;;;;55.85;2.40;;;5.80;1.00;;;;;;5013151;28;20229;-68
2020/12/28 01:47:40;;;;;;;55.60;2.20;;;5.80;1.00;;;;;;5013353;28;20211;-68
2020/12/28 01:50:07;;;;;;;56.17;2.35;;;5.90;1.00;;;;;;5013053;28;20230;-68
2020/12/28 01:52:33;;;;;;;55.67;2.05;;;5.80;1.00;;;;;;5013019;28;20672;-68
2020/12/28 01:55:00;;;;;;;56.13;2.20;;;5.90;1.00;;;;;;5012593;28;20282;-68
2020/12/28 01:57:27;;;;;;;55.90;2.70;;;5.90;1.00;;;;;;5013249;28;20836;-68
2020/12/28 01:59:53;;;;;;;55.70;2.50;;;5.90;1.00;;;;;;5012872;28;20308;-68
2020/12/28 02:02:22;;;;;;;56.10;2.28;;;5.90;1.00;;;;;;5013091;28;20231;-68
2020/12/28 02:04:49;;;;;;;55.47;2.13;;;5.90;1.00;;;;;;5012503;28;20293;-68
2020/12/28 02:07:16;;;;;;;55.65;2.20;;;5.80;1.00;;;;;;5012872;28;20211;-68
2020/12/28 02:09:45;;;;;;;55.35;1.95;;;5.90;1.00;;;;;;5012713;28;20233;-68
2020/12/28 02:12:13;;;;;;;56.08;2.13;;;5.90;1.00;;;;;;5012918;28;20213;-68
2020/12/28 02:14:39;;;;;;;56.55;2.10;;;5.80;1.00;;;;;;5012787;28;20226;-68
2020/12/28 02:17:06;;;;;;;55.90;2.30;;;5.80;1.00;;;;;;5012818;28;20277;-68
2020/12/28 02:19:32;;;;;;;55.38;2.17;;;5.90;1.00;;;;;;5012810;28;20262;-68
2020/12/28 02:21:59;;;;;;;55.40;2.00;;;5.80;1.00;;;;;;5012576;28;20312;-68
2020/12/28 02:24:26;;;;;;;55.75;2.03;;;5.80;1.00;;;;;;5011985;28;20241;-68
2020/12/28 02:26:52;;;;;;;55.50;2.30;;;5.70;1.00;;;;;;5012485;28;20206;-68
2020/12/28 02:29:19;;;;;;;55.50;2.20;;;5.70;1.00;;;;;;5012218;28;20207;-68
2020/12/28 02:31:45;;;;;;;55.40;2.00;;;5.70;1.00;;;;;;5012651;28;20207;-68
2020/12/28 02:34:11;;;;;;;55.55;2.00;;;5.60;1.00;;;;;;5011882;28;20258;-68
2020/12/28 02:36:38;;;;;;;55.58;2.20;;;5.60;1.00;;;;;;5012472;28;20203;-68
2020/12/28 02:39:05;;;;;;;55.60;2.20;;;5.50;1.00;;;;;;5012334;28;20237;-67
2020/12/28 02:41:31;;;;;;;55.95;2.40;;;5.50;1.00;;;;;;5012381;28;20298;-67
2020/12/28 02:43:57;;;;;;;55.97;2.40;;;5.50;1.00;;;;;;5012035;28;20314;-67
2020/12/28 02:46:24;;;;;;;56.47;2.30;;;5.40;1.00;;;;;;5012343;28;20699;-67
2020/12/28 02:48:50;;;;;;;55.58;2.30;;;5.30;1.00;;;;;;5012300;28;20452;-67
2020/12/28 02:51:16;;;;;;;55.72;2.35;;;5.30;1.00;;;;;;5009912;28;20292;-68
2020/12/28 02:53:43;;;;;;;55.58;2.20;;;5.30;1.00;;;;;;5012047;28;20227;-67
2020/12/28 02:56:10;;;;;;;55.70;2.25;;;5.30;1.00;;;;;;5012149;28;20202;-67
2020/12/28 02:58:36;;;;;;;58.90;2.40;;;5.20;1.00;;;;;;5012232;28;20204;-67
2020/12/28 03:01:02;;;;;;;56.33;2.40;;;5.20;1.00;;;;;;5012236;28;20917;-67
2020/12/28 03:03:29;;;;;;;55.75;2.35;;;5.10;1.00;;;;;;5011572;28;20695;-67
2020/12/28 03:05:55;;;;;;;56.00;2.38;;;5.10;1.00;;;;;;5012059;28;20675;-68
2020/12/28 03:08:21;;;;;;;55.80;2.28;;;5.10;1.00;;;;;;5012094;28;20203;-68
2020/12/28 03:10:48;;;;;;;56.53;2.50;;;5.10;1.00;;;;;;5012028;28;20203;-68
2020/12/28 03:13:15;;;;;;;54.88;2.00;;;5.00;1.00;;;;;;5011617;28;20281;-68
2020/12/28 03:15:41;;;;;;;55.90;2.28;;;5.00;1.00;;;;;;5011882;28;20618;-68
2020/12/28 03:18:08;;;;;;;56.53;2.80;;;5.00;1.00;;;;;;5011984;28;20295;-68
2020/12/28 03:20:34;;;;;;;55.72;2.22;;;5.00;1.00;;;;;;5012046;28;20218;-68
2020/12/28 03:23:00;;;;;;;54.83;1.95;;;5.00;1.00;;;;;;5012041;28;20218;-68
2020/12/28 03:25:27;;;;;;;56.47;2.40;;;4.90;1.00;;;;;;5011640;28;20643;-68
2020/12/28 03:27:53;;;;;;;55.65;2.20;;;4.90;1.00;;;;;;5011562;28;20272;-68
2020/12/28 03:30:20;;;;;;;55.67;2.17;;;5.00;1.00;;;;;;5011800;28;20275;-68
2020/12/28 03:32:47;;;;;;;56.03;2.50;;;5.00;1.00;;;;;;5011876;28;20660;-68
2020/12/28 03:35:13;;;;;;;55.60;2.38;;;5.00;1.00;;;;;;5011230;28;20235;-68
2020/12/28 03:37:39;;;;;;;55.28;1.90;;;5.00;1.00;;;;;;5011347;28;20297;-68
2020/12/28 03:40:05;;;;;;;55.40;2.15;;;5.00;1.00;;;;;;5011526;28;20207;-68
2020/12/28 03:42:32;;;;;;;55.88;2.28;;;5.00;1.00;;;;;;5011665;28;20207;-68
2020/12/28 03:44:58;;;;;;;55.90;2.30;;;5.00;1.00;;;;;;5011176;28;20281;-68
2020/12/28 03:47:25;;;;;;;55.85;2.25;;;5.00;1.00;;;;;;5011613;28;20635;-68
2020/12/28 03:49:52;;;;;;;55.47;2.05;;;4.90;1.00;;;;;;5011692;28;20207;-68
2020/12/28 03:52:18;;;;;;;56.55;2.42;;;4.90;1.00;;;;;;5011917;28;20253;-68
2020/12/28 03:54:46;;;;;;;55.70;2.30;;;5.00;1.00;;;;;;5011017;28;20313;-68
2020/12/28 03:57:13;;;;;;;56.20;2.05;;;4.90;1.00;;;;;;5011356;28;20215;-68
2020/12/28 03:59:39;;;;;;;56.00;2.35;;;4.90;1.00;;;;;;5011634;28;20203;-68
2020/12/28 04:02:05;;;;;;;55.80;2.10;;;4.90;1.00;;;;;;5011524;28;20211;-68
2020/12/28 04:04:33;;;;;;;55.72;2.05;;;4.80;1.00;;;;;;5014163;28;20231;-68
2020/12/28 04:06:59;;;;;;;55.80;2.30;;;4.80;1.00;;;;;;5014828;28;20211;-68
2020/12/28 04:09:25;;;;;;;56.55;2.58;;;4.80;1.00;;;;;;5015030;28;20350;-68
2020/12/28 04:11:51;;;;;;;55.92;2.22;;;4.80;1.00;;;;;;5015171;28;20337;-68
2020/12/28 04:14:18;;;;;;;57.28;3.15;;;4.80;1.00;;;;;;5014798;28;20222;-68
2020/12/28 04:16:44;;;;;;;56.55;2.60;;;4.70;1.00;;;;;;5015009;28;20261;-68
2020/12/28 04:19:10;;;;;;;55.85;2.40;;;4.70;1.00;;;;;;5014678;28;20214;-67
2020/12/28 04:21:38;;;;;;;56.45;2.50;;;4.60;1.00;;;;;;5014644;28;20210;-67
2020/12/28 04:24:04;;;;;;;55.90;2.63;;;4.60;1.00;;;;;;5014192;28;20909;-68
2020/12/28 04:26:30;;;;;;;58.15;2.30;;;4.60;1.00;;;;;;5014964;28;20234;-68
2020/12/28 04:28:57;;;;;;;57.65;2.50;;;4.50;1.00;;;;;;5014620;28;20207;-67
2020/12/28 04:31:23;;;;;;;56.53;2.75;;;4.50;1.00;;;;;;5014387;28;20828;-67
2020/12/28 04:33:49;;;;;;;57.00;2.72;;;4.50;1.00;;;;;;5014345;28;20234;-67
2020/12/28 04:36:15;;;;;;;56.38;2.50;;;4.50;1.00;;;;;;5014316;28;20222;-68
2020/12/28 04:38:42;;;;;;;55.95;2.38;;;4.50;1.00;;;;;;5014252;28;20269;-68
2020/12/28 04:41:09;;;;;;;55.28;2.15;;;4.50;1.00;;;;;;5014604;28;20207;-67
2020/12/28 04:43:35;;;;;;;55.83;2.35;;;4.40;1.00;;;;;;5014270;28;20234;-68
2020/12/28 04:46:04;;;;;;;55.78;2.30;;;4.50;1.00;;;;;;5014321;28;20207;-67
2020/12/28 04:48:32;;;;;;;55.70;2.85;;;4.50;1.00;;;;;;5014261;28;20302;-67
2020/12/28 04:51:00;;;;;;;57.63;2.72;;;4.50;1.00;;;;;;5013748;28;20675;-67
2020/12/28 04:53:28;;;;;;;58.05;3.03;;;4.60;1.00;;;;;;5014057;28;20222;-67
2020/12/28 04:55:55;;;;;;;64.43;6.03;;;4.60;1.00;;;;;;5013875;28;20683;-68
2020/12/28 04:58:21;;;;;;;60.80;4.70;;;4.60;1.00;;;;;;5014061;28;20678;-68
2020/12/28 05:00:55;;;;;;;56.67;2.80;;;4.60;1.00;;;;;;5013714;28;20207;-68
2020/12/28 05:03:24;;;;;;;56.47;2.30;;;4.60;1.00;;;;;;5013691;28;20238;-68
2020/12/28 05:05:50;;;;;;;55.97;2.58;;;4.60;1.00;;;;;;5013902;28;20214;-68
2020/12/28 05:08:18;;;;;;;55.60;2.40;;;4.60;1.00;;;;;;5014144;28;20206;-68
2020/12/28 05:10:44;;;;;;;56.70;2.40;;;4.60;1.00;;;;;;5013876;28;20238;-68
2020/12/28 05:13:12;;;;;;;56.08;2.90;;;4.60;1.00;;;;;;5013496;28;20203;-68
2020/12/28 05:15:45;;;;;;;56.08;3.05;;;4.60;1.00;;;;;;5012779;28;20222;-68
2020/12/28 05:18:14;;;;;;;56.75;3.25;;;4.60;1.00;;;;;;5013935;28;20615;-68
2020/12/28 05:20:43;;;;;;;56.78;2.95;;;4.60;1.00;;;;;;5013636;28;20297;-68
2020/12/28 05:23:10;;;;;;;60.03;3.67;;;4.60;1.00;;;;;;5013390;28;20234;-68
2020/12/28 05:25:36;;;;;;;56.80;2.70;;;4.50;1.00;;;;;;5013636;28;20211;-68
2020/12/28 05:28:04;;;;;;;56.65;2.80;;;4.50;1.00;;;;;;5013661;28;20210;-68
2020/12/28 05:30:33;;;;;;;56.28;2.70;;;4.50;1.00;;;;;;5013320;28;20563;-68
2020/12/28 05:33:03;;;;;;;56.60;2.33;;;4.50;1.00;;;;;;5013295;28;20207;-67
2020/12/28 05:35:30;;;;;;;56.45;2.80;;;4.50;1.00;;;;;;5013210;28;20191;-68
2020/12/28 05:37:58;;;;;;;57.33;2.63;;;4.50;1.00;;;;;;5013322;28;20207;-68
2020/12/28 05:40:25;;;;;;;57.90;3.55;;;4.50;1.00;;;;;;5013420;28;20297;-68
2020/12/28 05:42:53;;;;;;;56.83;3.30;;;4.50;1.00;;;;;;5013290;28;20293;-68
2020/12/28 05:45:19;;;;;;;56.92;3.00;;;4.50;1.00;;;;;;5013057;28;20601;-68
2020/12/28 05:47:50;;;;;;;56.38;2.90;;;4.50;1.00;;;;;;5013240;28;20217;-68
2020/12/28 05:50:20;;;;;;;57.85;3.00;;;4.50;1.00;;;;;;5013366;28;20195;-67
2020/12/28 05:52:54;;;;;;;56.50;2.90;;;4.50;1.00;;;;;;5013559;28;20202;-68
2020/12/28 05:55:23;;;;;;;56.30;2.70;;;4.50;1.00;;;;;;5013098;28;20227;-68
2020/12/28 05:57:49;;;;;;;56.00;2.50;;;4.50;1.00;;;;;;5013163;28;20207;-68
2020/12/28 06:00:16;;;;;;;56.10;2.40;;;4.50;1.00;;;;;;5013380;28;20313;-68
2020/12/28 06:02:43;;;;;;;55.78;2.75;;;4.50;1.00;;;;;;5013542;28;20210;-68
2020/12/28 06:05:11;;;;;;;55.80;2.30;;;4.50;1.00;;;;;;5013024;28;20231;-68
2020/12/28 06:07:37;;;;;;;55.83;2.45;;;4.60;1.00;;;;;;5013213;28;20641;-68
2020/12/28 06:10:05;;;;;;;56.58;2.35;;;4.60;1.00;;;;;;5013217;28;20240;-68
2020/12/28 06:12:32;;;;;;;55.60;2.10;;;4.70;1.00;;;;;;5013292;28;20207;-68
2020/12/28 06:14:59;;;;;;;55.72;2.30;;;4.80;1.00;;;;;;5071930;22;20280;-70
2020/12/28 06:17:33;;;;;;;56.58;2.45;;;4.90;1.00;;;;;;5052069;28;20637;-70
2020/12/28 06:20:04;;;;;;;56.33;2.45;;;4.90;1.00;;;;;;5052301;28;20215;-69
2020/12/28 06:22:32;;;;;;;56.17;2.33;;;5.00;1.00;;;;;;5051854;28;20301;-71
2020/12/28 06:25:00;;;;;;;55.70;2.47;;;5.00;1.00;;;;;;5051920;28;20235;-69
2020/12/28 06:27:32;;;;;;;55.97;2.30;;;5.00;1.00;;;;;;5051117;28;20211;-70
2020/12/28 06:30:12;;;;;;;56.55;2.22;;;5.00;1.00;;;;;;5052029;28;20209;-69
2020/12/28 06:32:40;;;;;;;55.92;2.55;;;5.00;1.00;;;;;;5051786;28;20216;-72
2020/12/28 06:35:08;;;;;;;55.42;2.30;;;5.00;1.00;;;;;;5051347;28;20231;-69
2020/12/28 06:37:41;;;;;;;55.80;2.60;;;5.00;1.00;;;;;;5052046;28;20209;-69
2020/12/28 06:40:08;;;;;;;55.47;2.38;;;5.10;1.00;;;;;;5051954;28;20297;-70
2020/12/28 06:42:34;;;;;;;56.00;2.30;;;5.00;1.00;;;;;;5051811;28;20211;-70
2020/12/28 06:45:12;;;;;;;56.40;2.80;;;5.00;1.00;;;;;;5051380;28;20229;-71
2020/12/28 06:47:38;;;;;;;56.50;2.60;;;5.00;1.00;;;;;;5051553;28;20209;-69
2020/12/28 06:50:05;;;;;;;57.97;2.72;;;5.00;1.00;;;;;;5051783;28;20205;-69
2020/12/28 06:52:31;;;;;;;55.90;2.70;;;5.00;1.00;;;;;;5051778;28;20216;-70
2020/12/28 06:55:11;;;;;;;56.45;2.50;;;5.00;1.00;;;;;;5051194;28;20316;-70
2020/12/28 06:57:38;;;;;;;56.22;2.65;;;5.00;1.00;;;;;;5051491;28;20213;-69
2020/12/28 07:00:18;;;;;;;56.50;2.65;;;5.00;1.00;;;;;;5051340;28;20680;-69
2020/12/28 07:02:50;;;;;;;56.97;3.20;;;5.00;1.00;;;;;;5051600;28;20213;-69
2020/12/28 07:05:20;;;;;;;56.88;2.85;;;5.00;1.00;;;;;;5051219;28;20233;-69
2020/12/28 07:07:46;;;;;;;56.30;3.00;;;4.90;1.00;;;;;;5051366;28;20669;-69
2020/12/28 07:10:18;;;;;;;57.10;3.30;;;4.90;1.00;;;;;;5051430;28;20209;-69
2020/12/28 07:12:45;;;;;;;60.10;6.95;;;4.90;1.00;;;;;;5051327;28;20263;-69
2020/12/28 07:15:13;;;;;;;58.30;4.40;;;4.90;1.00;;;;;;5050982;28;20296;-69
2020/12/28 07:17:39;;;;;;;61.08;6.25;;;4.80;1.00;;;;;;5051484;28;20252;-69
2020/12/28 07:20:07;;;;;;;59.10;4.75;;;4.90;1.00;;;;;;5051418;28;20290;-69
2020/12/28 07:22:37;;;;;;;56.45;2.92;;;4.90;1.00;;;;;;5051187;28;20205;-69
2020/12/28 07:25:05;;;;;;;57.60;3.70;;;5.00;1.00;;;;;;5050661;28;20324;-69
2020/12/28 07:27:32;;;;;;;57.97;2.70;;;4.90;1.00;;;;;;5051222;28;20209;-70
2020/12/28 07:29:58;;;;;;;56.00;2.50;;;5.00;1.00;;;;;;5051275;28;20275;-71
2020/12/28 07:32:25;;;;;;;56.08;2.28;;;5.00;1.00;;;;;;5051271;28;20618;-69
2020/12/28 07:34:55;;;;;;;55.97;2.58;;;5.00;1.00;;;;;;5050659;28;20259;-69
2020/12/28 07:37:22;;;;;;;57.08;2.60;;;5.00;1.00;;;;;;5051102;28;20233;-69
2020/12/28 07:39:49;;;;;;;59.83;2.70;;;4.90;1.00;;;;;;5054849;28;20209;-71
2020/12/28 07:42:23;;;;;;;56.70;2.47;;;5.00;1.00;;;;;;5055273;28;20618;-69
2020/12/28 07:44:56;;;;;;;56.67;2.45;;;5.00;1.00;;;;;;5054714;28;20654;-69
2020/12/28 07:47:38;;;;;;;55.90;2.50;;;4.90;1.00;;;;;;5055361;28;20423;-69
2020/12/28 07:50:07;;;;;;;55.80;2.50;;;4.90;1.00;;;;;;5054593;28;20201;-71
2020/12/28 07:52:40;;;;;;;55.85;2.60;;;4.90;1.00;;;;;;5055147;28;20237;-69
2020/12/28 07:55:14;;;;;;;55.80;2.40;;;4.90;1.00;;;;;;5054624;28;20261;-71
2020/12/28 07:57:55;;;;;;;58.03;2.90;;;4.90;1.00;;;;;;5055039;28;20206;-69
2020/12/28 08:00:27;;;;;;;57.13;2.50;;;4.90;1.00;;;;;;5054721;28;20695;-70
2020/12/28 08:03:24;;;;;;;55.95;2.67;;;4.90;1.00;;;;;;5054652;28;20202;-69
2020/12/28 08:05:55;;;;;;;56.00;2.70;;;4.90;1.00;;;;;;5043825;28;20578;-69
2020/12/28 08:08:23;;;;;;;55.50;2.38;;;4.90;1.00;;;;;;5054861;28;20240;-69
2020/12/28 08:10:54;;;;;;;58.13;2.70;;;4.90;1.00;;;;;;5054321;28;20641;-69
2020/12/28 08:13:27;;;;;;;56.20;2.80;;;4.90;1.00;;;;;;5054683;28;20206;-69
2020/12/28 08:15:55;;;;;;;55.53;2.35;;;4.90;1.00;;;;;;5054285;28;20220;-69
2020/12/28 08:18:22;;;;;;;56.38;2.50;;;4.90;1.00;;;;;;5054633;28;20212;-70
2020/12/28 08:20:58;;;;;;;55.80;2.35;;;4.90;1.00;;;;;;5054436;28;20217;-69
2020/12/28 08:23:28;;;;;;;56.13;2.50;;;4.80;1.00;;;;;;5053982;28;20742;-70
2020/12/28 08:25:54;;;;;;;55.95;2.40;;;4.90;1.00;;;;;;5054147;28;20293;-70
2020/12/28 08:28:21;;;;;;;55.88;2.40;;;4.90;1.00;;;;;;5054337;28;20210;-69
2020/12/28 08:30:49;;;;;;;55.60;2.60;;;4.90;1.00;;;;;;5054182;28;20302;-68
2020/12/28 08:33:18;;;;;;;55.70;2.80;;;4.90;1.00;;;;;;5054148;28;20228;-69
2020/12/28 08:35:49;;;;;;;56.20;2.55;;;4.90;1.00;;;;;;5053781;28;20699;-69
2020/12/28 08:38:15;;;;;;;56.00;2.53;;;4.90;1.00;;;;;;5054255;28;20209;-69
2020/12/28 08:40:42;;;;;;;56.10;2.80;;;4.90;1.00;;;;;;5053817;28;20213;-69
2020/12/28 08:43:10;;;;;;;56.60;2.53;;;4.80;1.00;;;;;;5053805;28;20712;-70
2020/12/28 08:45:36;;;;;;;55.97;2.67;;;4.90;1.00;;;;;;5053569;28;20312;-69
2020/12/28 08:48:03;;;;;;;56.40;2.78;;;4.90;1.00;;;;;;5053865;28;20251;-70
2020/12/28 08:50:35;;;;;;;56.58;2.50;;;4.90;1.00;;;;;;5052872;28;20209;-69
2020/12/28 08:53:01;;;;;;;55.55;2.28;;;4.90;1.00;;;;;;5053830;28;20201;-69
2020/12/28 08:55:28;;;;;;;56.30;2.83;;;5.00;1.00;;;;;;5053477;28;20648;-69
2020/12/28 08:57:56;;;;;;;55.80;2.47;;;5.00;1.00;;;;;;5053779;28;20205;-68
2020/12/28 09:00:23;;;;;;;56.75;2.70;;;5.00;1.00;;;;;;5053551;28;20250;-68
2020/12/28 09:02:54;;;;;;;55.30;2.50;;;5.00;1.00;;;;;;5053626;28;20686;-69
2020/12/28 09:05:21;;;;;;;56.70;2.60;;;5.00;1.00;;;;;;5053367;28;20237;-68
2020/12/28 09:07:49;;;;;;;55.90;3.00;;;5.00;1.00;;;;;;5053581;28;20264;-69
2020/12/28 09:10:16;;;;;;;61.08;3.20;;;5.00;1.00;;;;;;5053552;28;20259;-69
2020/12/28 09:12:42;;;;;;;55.88;2.50;;;5.00;1.00;;;;;;5053782;28;20206;-69
2020/12/28 09:15:09;;;;;;;56.95;2.88;;;5.00;1.00;;;;;;5053087;28;20542;-69
2020/12/28 09:17:36;;;;;;;55.90;2.45;;;5.10;1.00;;;;;;5052993;28;20205;-69
2020/12/28 09:20:04;;;;;;;56.40;2.90;;;5.10;1.00;;;;;;5053415;28;20262;-69
2020/12/28 09:22:30;;;;;;;56.42;2.90;;;5.10;1.00;;;;;;5053157;28;20202;-69
2020/12/28 09:24:57;;;;;;;55.97;2.38;;;5.20;1.00;;;;;;5052800;28;20225;-69
2020/12/28 09:27:24;;;;;;;58.63;2.92;;;5.20;1.00;;;;;;5053072;28;20625;-70
2020/12/28 09:29:50;;;;;;;57.75;2.75;;;5.20;1.00;;;;;;5053018;28;20221;-68
2020/12/28 09:32:16;;;;;;;57.60;3.58;;;5.20;1.00;;;;;;5052795;28;20257;-69
2020/12/28 09:34:42;;;;;;;56.47;2.47;;;5.20;1.00;;;;;;5052776;28;20228;-69
2020/12/28 09:37:09;;;;;;;56.42;2.63;;;5.30;1.00;;;;;;5053030;28;20221;-69
2020/12/28 09:39:36;;;;;;;57.22;2.90;;;5.30;1.00;;;;;;5052738;28;20700;-68
2020/12/28 09:42:05;;;;;;;57.65;3.50;;;5.30;1.00;;;;;;5052962;28;20808;-69
2020/12/28 09:44:31;;;;;;;58.20;3.42;;;5.30;1.00;;;;;;5052299;28;20229;-69
2020/12/28 09:46:58;;;;;;;56.42;2.78;;;5.40;1.00;;;;;;5052647;28;20240;-68
2020/12/28 09:49:25;;;;;;;56.00;2.85;;;5.40;1.00;;;;;;5052660;28;20252;-69
2020/12/28 09:51:53;;;;;;;56.58;3.28;;;5.40;1.00;;;;;;5052819;28;20589;-68
2020/12/28 09:54:20;;;;;;;58.05;3.80;;;5.50;1.00;;;;;;5052261;28;20269;-68
2020/12/28 09:56:47;;;;;;;57.42;3.40;;;5.50;1.00;;;;;;5052607;28;20321;-69
2020/12/28 09:59:14;;;;;;;57.35;3.60;;;5.50;1.00;;;;;;5052177;28;20216;-69
2020/12/28 10:01:43;;;;;;;57.28;3.40;;;5.50;1.00;;;;;;5052511;28;20576;-70
2020/12/28 10:04:10;;;;;;;57.33;3.60;;;5.50;1.00;;;;;;5052305;28;20304;-69
2020/12/28 10:06:36;;;;;;;57.00;3.53;;;5.50;1.00;;;;;;5052329;28;20232;-70
2020/12/28 10:09:04;;;;;;;58.45;3.85;;;5.60;1.00;;;;;;5052232;28;20248;-69
2020/12/28 10:11:31;;;;;;;57.30;3.67;;;5.60;1.00;;;;;;5052243;28;20810;-68
2020/12/28 10:13:57;;;;;;;60.35;5.25;;;5.60;1.00;;;;;;5051934;28;20268;-70
2020/12/28 10:16:25;;;;;;;57.25;3.80;;;5.60;1.00;;;;;;5052180;28;20220;-69
2020/12/28 10:18:53;;;;;;;57.05;3.65;;;5.60;1.00;;;;;;5052347;28;20240;-69
2020/12/28 10:21:20;;;;;;;57.63;3.63;;;5.60;1.00;;;;;;5052012;28;20202;-69
2020/12/28 10:23:46;;;;;;;57.78;3.97;;;5.60;1.00;;;;;;5051982;28;20314;-68
2020/12/28 10:26:17;;;;;;;58.35;4.68;;;5.60;1.00;;;;;;5051757;28;20291;-69
2020/12/28 10:28:44;;;;;;;58.45;4.07;;;5.60;1.00;;;;;;5052204;28;20552;-69
2020/12/28 10:31:11;;;;;;;58.80;4.13;;;5.60;1.00;;;;;;5052003;28;20208;-69
2020/12/28 10:33:40;;;;;;;58.03;4.60;;;5.70;1.00;;;;;;5051724;28;20209;-68
2020/12/28 10:36:12;;;;;;;57.90;4.35;;;5.70;1.00;;;;;;5051495;28;20210;-68
2020/12/28 10:38:39;;;;;;;58.42;4.05;;;5.70;1.00;;;;;;5051605;28;20633;-69
2020/12/28 10:41:05;;;;;;;57.20;4.18;;;5.70;1.00;;;;;;5051572;28;20220;-69
2020/12/28 10:43:31;;;;;;;57.22;4.10;;;5.70;1.00;;;;;;5051942;28;20252;-68
2020/12/28 10:45:58;;;;;;;58.85;4.93;;;5.70;1.00;;;;;;5051642;28;20264;-69
2020/12/28 10:48:25;;;;;;;57.60;4.60;;;5.70;1.00;;;;;;5051641;28;20746;-68
2020/12/28 10:50:53;;;;;;;58.78;5.50;;;5.70;1.00;;;;;;5051623;28;20233;-69
2020/12/28 10:53:19;;;;;;;60.22;4.95;;;5.70;1.00;;;;;;5051472;28;20664;-70
2020/12/28 10:55:45;;;;;;;59.90;5.20;;;5.70;1.00;;;;;;5051161;28;20219;-69
2020/12/28 10:58:13;;;;;;;60.60;5.65;;;5.80;1.00;;;;;;5051671;28;20213;-70
2020/12/28 11:00:40;;;;;;;61.03;5.80;;;5.70;1.00;;;;;;5051379;28;20206;-68
2020/12/28 11:03:06;;;;;;;58.08;5.13;;;5.70;1.00;;;;;;5051402;28;20252;-68
2020/12/28 11:05:32;;;;;;;58.97;5.10;;;5.70;1.00;;;;;;5050006;28;20689;-69
2020/12/28 11:08:00;;;;;;;58.75;5.55;;;5.70;1.00;;;;;;5051518;28;20237;-69
2020/12/28 11:10:26;;;;;;;58.55;4.60;;;5.70;1.00;;;;;;5056669;28;20539;-69
2020/12/28 11:12:52;;;;;;;58.95;5.05;;;5.70;1.00;;;;;;5070688;28;20698;-70
2020/12/28 11:15:19;;;;;;;59.15;5.00;;;5.60;1.00;;;;;;5070951;28;20327;-68
2020/12/28 11:17:45;;;;;;;57.97;4.85;;;5.60;1.00;;;;;;5071340;28;20236;-69
2020/12/28 11:20:11;;;;;;;58.92;5.00;;;5.60;1.00;;;;;;5071789;28;20258;-68
2020/12/28 11:22:37;;;;;;;59.90;5.90;;;5.60;1.00;;;;;;5070946;28;20220;-69
2020/12/28 11:25:05;;;;;;;59.38;5.30;;;5.60;1.00;;;;;;5071030;28;20257;-68
2020/12/28 11:27:32;;;;;;;58.92;5.10;;;5.60;1.00;;;;;;5071334;28;20205;-69
2020/12/28 11:29:58;;;;;;;58.25;4.75;;;5.60;1.00;;;;;;5071261;28;20205;-68
2020/12/28 11:32:24;;;;;;;58.50;5.03;;;5.60;1.00;;;;;;5071322;28;20254;-68
2020/12/28 11:34:51;;;;;;;60.80;5.05;;;5.60;1.00;;;;;;5070901;28;20227;-68
2020/12/28 11:37:17;;;;;;;60.13;5.88;;;5.60;1.00;;;;;;5071713;28;20205;-70
2020/12/28 11:39:44;;;;;;;60.28;5.10;;;5.60;1.00;;;;;;5071213;28;20259;-69
2020/12/28 11:42:12;;;;;;;64.80;6.50;;;5.60;1.00;;;;;;5071199;28;20209;-68
2020/12/28 11:44:39;;;;;;;63.95;6.70;;;5.60;1.00;;;;;;5070769;28;20248;-69
2020/12/28 11:47:05;;;;;;;61.53;6.20;;;5.60;1.00;;;;;;5071472;28;20229;-71
2020/12/28 11:49:32;;;;;;;60.05;5.50;;;5.60;1.00;;;;;;5070849;28;20292;-69
2020/12/28 11:51:58;;;;;;;59.60;5.40;;;5.60;1.00;;;;;;5070954;28;20760;-69
2020/12/28 11:54:24;;;;;;;60.30;6.30;;;5.60;1.00;;;;;;5070659;28;20296;-69
2020/12/28 11:56:50;;;;;;;62.15;6.35;;;5.70;1.00;;;;;;5071384;28;20209;-68
2020/12/28 11:59:18;;;;;;;59.72;5.97;;;5.70;1.00;;;;;;5071459;28;20220;-69
2020/12/28 12:01:48;;;;;;;60.70;6.43;;;5.70;1.00;;;;;;5071407;28;20697;-69
2020/12/28 12:04:14;;;;;;;59.70;5.85;;;5.80;1.00;;;;;;5070711;28;20232;-70
2020/12/28 12:06:41;;;;;;;68.45;6.45;;;5.80;1.00;;;;;;5071068;28;20205;-69
2020/12/28 12:09:14;;;;;;;60.30;6.50;;;5.80;1.00;;;;;;5070687;28;20208;-69
2020/12/28 12:11:45;;;;;;;60.60;6.63;;;5.80;1.00;;;;;;5071207;28;20241;-69
2020/12/28 12:14:13;;;;;;;60.88;6.95;;;5.80;1.00;;;;;;5070613;28;20232;-69
2020/12/28 12:16:40;;;;;;;60.70;6.85;;;5.80;1.00;;;;;;5071058;28;20209;-69
2020/12/28 12:19:06;;;;;;;62.60;7.43;;;5.80;1.00;;;;;;5071000;28;20606;-69
2020/12/28 12:21:33;;;;;;;61.78;7.47;;;5.80;1.00;;;;;;5070831;28;20217;-69
2020/12/28 12:24:00;;;;;;;63.40;7.28;;;5.80;1.00;;;;;;5071574;28;20782;-69
2020/12/28 12:26:26;;;;;;;63.22;7.43;;;5.80;1.00;;;;;;5074023;28;20209;-71
2020/12/28 12:28:54;;;;;;;62.92;7.55;;;5.90;1.00;;;;;;5074211;28;20216;-69
2020/12/28 12:31:21;;;;;;;63.40;8.70;;;5.90;1.00;;;;;;5073956;28;20719;-69
2020/12/28 12:33:49;;;;;;;62.33;8.20;;;5.90;1.00;;;;;;5074434;28;20301;-68
2020/12/28 12:36:16;;;;;;;61.28;6.28;;;5.90;1.00;;;;;;5073626;28;20674;-69
2020/12/28 12:38:42;;;;;;;60.90;6.70;;;5.90;1.00;;;;;;5097443;22;20201;-66
2020/12/28 12:41:12;;;;;;;60.53;7.13;;;5.90;1.00;;;;;;5053044;28;20557;-67
2020/12/28 12:43:39;;;;;;;63.80;6.90;;;5.90;1.00;;;;;;5053892;28;20251;-67
2020/12/28 12:46:05;;;;;;;60.75;6.10;;;5.80;1.00;;;;;;5054035;28;20262;-67
2020/12/28 12:48:31;;;;;;;62.22;7.45;;;5.80;1.00;;;;;;5053789;28;20300;-67
2020/12/28 12:50:59;;;;;;;62.33;7.32;;;5.70;1.00;;;;;;5054025;28;20202;-66
2020/12/28 12:53:25;;;;;;;62.05;6.72;;;5.70;1.00;;;;;;5053763;28;20628;-67
2020/12/28 12:55:51;;;;;;;64.07;6.78;;;5.60;1.00;;;;;;5053642;28;20219;-66
2020/12/28 12:58:17;;;;;;;60.55;6.45;;;5.60;1.00;;;;;;5053550;28;20684;-67